sensor_id;sensor_type;location;lat;lon;timestamp;pressure;altitude;pressure_sealevel;temperature;humidity
12452;BME280;72521;48.924;12.204;2023-11-18T00:00:57;98158.91;;;3.85;83.42
12452;BME280;72521;48.924;12.204;2023-11-18T00:06:01;98160.97;;;3.65;84.92
12452;BME280;72521;48.924;12.204;2023-11-18T00:11:07;98164.44;;;3.59;85.19
12452;BME280;72521;48.924;12.204;2023-11-18T00:16:13;98160.88;;;3.71;84.47
12452;BME280;72521;48.924;12.204;2023-11-18T00:21:19;98156.66;;;3.70;83.72
12452;BME280;72521;48.924;12.204;2023-11-18T00:26:24;98162.09;;;3.69;83.02
12452;BME280;72521;48.924;12.204;2023-11-18T00:31:34;98165.31;;;3.71;83.23
12452;BME280;72521;48.924;12.204;2023-11-18T00:36:38;98161.72;;;3.65;82.32
12452;BME280;72521;48.924;12.204;2023-11-18T00:41:43;98163.06;;;3.75;81.42
12452;BME280;72521;48.924;12.204;2023-11-18T00:46:48;98149.41;;;3.72;81.81
12452;BME280;72521;48.924;12.204;2023-11-18T00:51:53;98152.81;;;3.73;81.82
12452;BME280;72521;48.924;12.204;2023-11-18T00:56:59;98157.31;;;3.66;81.21
12452;BME280;72521;48.924;12.204;2023-11-18T01:02:04;98162.47;;;3.72;82.13
12452;BME280;72521;48.924;12.204;2023-11-18T01:07:13;98162.69;;;3.71;81.86
12452;BME280;72521;48.924;12.204;2023-11-18T01:12:18;98172.94;;;3.72;82.27
12452;BME280;72521;48.924;12.204;2023-11-18T01:17:23;98170.69;;;3.76;81.97
12452;BME280;72521;48.924;12.204;2023-11-18T01:22:27;98169.38;;;3.67;82.80
12452;BME280;72521;48.924;12.204;2023-11-18T01:27:33;98172.56;;;3.69;82.81
12452;BME280;72521;48.924;12.204;2023-11-18T01:32:37;98173.59;;;3.68;83.24
12452;BME280;72521;48.924;12.204;2023-11-18T01:37:43;98179.13;;;3.78;83.27
12452;BME280;72521;48.924;12.204;2023-11-18T01:42:49;98183.34;;;3.79;82.79
12452;BME280;72521;48.924;12.204;2023-11-18T01:47:53;98193.09;;;3.72;84.57
12452;BME280;72521;48.924;12.204;2023-11-18T01:52:57;98201.94;;;3.71;84.87
12452;BME280;72521;48.924;12.204;2023-11-18T01:58:05;98201.16;;;3.70;86.10
12452;BME280;72521;48.924;12.204;2023-11-18T02:03:12;98203.56;;;3.72;85.81
12452;BME280;72521;48.924;12.204;2023-11-18T02:08:17;98198.38;;;3.65;85.14
12452;BME280;72521;48.924;12.204;2023-11-18T02:13:26;98202.81;;;3.65;84.67
12452;BME280;72521;48.924;12.204;2023-11-18T02:18:33;98199.41;;;3.64;84.75
12452;BME280;72521;48.924;12.204;2023-11-18T02:23:38;98194.31;;;3.69;84.57
12452;BME280;72521;48.924;12.204;2023-11-18T02:28:44;98198.53;;;3.70;84.57
12452;BME280;72521;48.924;12.204;2023-11-18T02:33:54;98194.38;;;3.63;84.38
12452;BME280;72521;48.924;12.204;2023-11-18T02:39:02;98195.91;;;3.70;84.71
12452;BME280;72521;48.924;12.204;2023-11-18T02:44:12;98187.63;;;3.73;84.57
12452;BME280;72521;48.924;12.204;2023-11-18T02:49:20;98196.56;;;3.66;84.82
12452;BME280;72521;48.924;12.204;2023-11-18T02:54:24;98201.88;;;3.78;84.81
12452;BME280;72521;48.924;12.204;2023-11-18T02:59:30;98209.69;;;3.84;84.58
12452;BME280;72521;48.924;12.204;2023-11-18T03:04:34;98210.59;;;3.90;84.60
12452;BME280;72521;48.924;12.204;2023-11-18T03:09:38;98217.59;;;3.96;83.93
12452;BME280;72521;48.924;12.204;2023-11-18T03:14:44;98222.31;;;3.87;83.97
12452;BME280;72521;48.924;12.204;2023-11-18T03:19:48;98225.63;;;3.58;84.27
12452;BME280;72521;48.924;12.204;2023-11-18T03:24:53;98235.28;;;3.57;84.98
12452;BME280;72521;48.924;12.204;2023-11-18T03:29:58;98241.31;;;3.58;84.43
12452;BME280;72521;48.924;12.204;2023-11-18T03:35:03;98244.38;;;3.55;85.15
12452;BME280;72521;48.924;12.204;2023-11-18T03:40:12;98248.81;;;3.54;84.91
12452;BME280;72521;48.924;12.204;2023-11-18T03:45:17;98247.31;;;3.40;84.31
12452;BME280;72521;48.924;12.204;2023-11-18T03:50:21;98254.41;;;3.33;84.34
12452;BME280;72521;48.924;12.204;2023-11-18T03:55:25;98252.53;;;3.15;84.54
12452;BME280;72521;48.924;12.204;2023-11-18T04:00:31;98243.91;;;3.15;85.24
12452;BME280;72521;48.924;12.204;2023-11-18T04:05:35;98253.28;;;2.97;86.71
12452;BME280;72521;48.924;12.204;2023-11-18T04:10:40;98255.66;;;2.99;87.22
12452;BME280;72521;48.924;12.204;2023-11-18T04:15:47;98262.81;;;3.10;86.93
12452;BME280;72521;48.924;12.204;2023-11-18T04:20:51;98262.81;;;3.10;87.71
12452;BME280;72521;48.924;12.204;2023-11-18T04:25:55;98252.22;;;3.05;87.41
12452;BME280;72521;48.924;12.204;2023-11-18T04:31:01;98265.50;;;3.04;87.21
12452;BME280;72521;48.924;12.204;2023-11-18T04:36:06;98259.53;;;2.90;87.56
12452;BME280;72521;48.924;12.204;2023-11-18T04:41:12;98264.75;;;2.90;87.82
12452;BME280;72521;48.924;12.204;2023-11-18T04:46:18;98274.75;;;2.99;87.84
12452;BME280;72521;48.924;12.204;2023-11-18T04:51:23;98267.47;;;3.08;87.52
12452;BME280;72521;48.924;12.204;2023-11-18T04:56:28;98259.72;;;3.26;87.55
12452;BME280;72521;48.924;12.204;2023-11-18T05:01:34;98271.59;;;3.22;87.20
12452;BME280;72521;48.924;12.204;2023-11-18T05:06:39;98269.25;;;3.39;86.80
12452;BME280;72521;48.924;12.204;2023-11-18T05:11:44;98272.25;;;3.43;85.82
12452;BME280;72521;48.924;12.204;2023-11-18T05:16:51;98269.63;;;3.43;86.33
12452;BME280;72521;48.924;12.204;2023-11-18T05:21:56;98263.97;;;3.46;85.77
12452;BME280;72521;48.924;12.204;2023-11-18T05:27:00;98275.34;;;3.33;85.59
12452;BME280;72521;48.924;12.204;2023-11-18T05:32:09;98260.38;;;3.15;85.34
12452;BME280;72521;48.924;12.204;2023-11-18T05:37:13;98262.34;;;2.95;86.24
12452;BME280;72521;48.924;12.204;2023-11-18T05:42:20;98259.72;;;2.95;86.87
12452;BME280;72521;48.924;12.204;2023-11-18T05:47:26;98261.28;;;3.03;86.32
12452;BME280;72521;48.924;12.204;2023-11-18T05:52:30;98273.13;;;3.05;86.62
12452;BME280;72521;48.924;12.204;2023-11-18T05:57:35;98278.00;;;2.95;86.31
12452;BME280;72521;48.924;12.204;2023-11-18T06:02:41;98285.00;;;3.01;86.52
12452;BME280;72521;48.924;12.204;2023-11-18T06:07:45;98284.00;;;3.02;86.39
12452;BME280;72521;48.924;12.204;2023-11-18T06:12:49;98285.34;;;3.11;86.34
12452;BME280;72521;48.924;12.204;2023-11-18T06:17:55;98284.13;;;3.14;85.55
12452;BME280;72521;48.924;12.204;2023-11-18T06:23:00;98292.78;;;3.14;85.71
12452;BME280;72521;48.924;12.204;2023-11-18T06:28:04;98287.97;;;3.11;86.09
12452;BME280;72521;48.924;12.204;2023-11-18T06:33:11;98283.66;;;2.92;85.44
12452;BME280;72521;48.924;12.204;2023-11-18T06:38:16;98295.13;;;2.91;85.87
12452;BME280;72521;48.924;12.204;2023-11-18T06:43:21;98300.94;;;2.93;84.94
12452;BME280;72521;48.924;12.204;2023-11-18T06:48:26;98303.97;;;2.90;85.66
12452;BME280;72521;48.924;12.204;2023-11-18T06:53:31;98306.38;;;2.91;85.83
12452;BME280;72521;48.924;12.204;2023-11-18T06:58:38;98311.16;;;3.01;84.65
12452;BME280;72521;48.924;12.204;2023-11-18T07:03:44;98311.69;;;3.16;84.36
12452;BME280;72521;48.924;12.204;2023-11-18T07:08:48;98326.91;;;3.19;84.57
12452;BME280;72521;48.924;12.204;2023-11-18T07:13:52;98314.50;;;3.15;83.98
12452;BME280;72521;48.924;12.204;2023-11-18T07:19:00;98322.28;;;3.21;83.58
12452;BME280;72521;48.924;12.204;2023-11-18T07:24:07;98334.59;;;3.14;84.04
12452;BME280;72521;48.924;12.204;2023-11-18T07:29:11;98343.16;;;2.90;83.82
12452;BME280;72521;48.924;12.204;2023-11-18T07:34:16;98344.00;;;3.22;83.64
12452;BME280;72521;48.924;12.204;2023-11-18T07:39:20;98354.94;;;3.44;82.67
12452;BME280;72521;48.924;12.204;2023-11-18T07:44:33;98364.72;;;3.23;83.41
12452;BME280;72521;48.924;12.204;2023-11-18T07:49:38;98370.00;;;3.48;83.14
12452;BME280;72521;48.924;12.204;2023-11-18T07:54:43;98361.19;;;3.43;83.18
12452;BME280;72521;48.924;12.204;2023-11-18T07:59:47;98361.19;;;3.67;82.71
12452;BME280;72521;48.924;12.204;2023-11-18T08:04:53;98373.19;;;3.82;81.30
12452;BME280;72521;48.924;12.204;2023-11-18T08:09:58;98366.06;;;3.89;81.76
12452;BME280;72521;48.924;12.204;2023-11-18T08:15:06;98369.72;;;4.13;80.87
12452;BME280;72521;48.924;12.204;2023-11-18T08:20:13;98366.63;;;4.16;80.13
12452;BME280;72521;48.924;12.204;2023-11-18T08:25:18;98364.19;;;4.39;80.43
12452;BME280;72521;48.924;12.204;2023-11-18T08:30:22;98357.06;;;4.28;79.51
12452;BME280;72521;48.924;12.204;2023-11-18T08:35:28;98368.41;;;4.22;80.33
12452;BME280;72521;48.924;12.204;2023-11-18T08:40:32;98369.03;;;4.42;80.21
12452;BME280;72521;48.924;12.204;2023-11-18T08:45:37;98368.13;;;4.48;79.41
12452;BME280;72521;48.924;12.204;2023-11-18T08:50:42;98361.72;;;4.80;79.28
12452;BME280;72521;48.924;12.204;2023-11-18T08:55:47;98360.66;;;4.70;79.16
12452;BME280;72521;48.924;12.204;2023-11-18T09:00:58;98355.84;;;5.15;78.67
12452;BME280;72521;48.924;12.204;2023-11-18T09:06:11;98367.97;;;5.28;77.58
12452;BME280;72521;48.924;12.204;2023-11-18T09:11:23;98365.53;;;5.14;77.98
12452;BME280;72521;48.924;12.204;2023-11-18T09:16:30;98355.13;;;5.49;77.92
12452;BME280;72521;48.924;12.204;2023-11-18T09:21:37;98361.47;;;5.72;77.47
12452;BME280;72521;48.924;12.204;2023-11-18T09:26:42;98370.50;;;5.34;76.98
12452;BME280;72521;48.924;12.204;2023-11-18T09:31:51;98373.94;;;5.35;77.66
12452;BME280;72521;48.924;12.204;2023-11-18T09:36:58;98386.59;;;5.08;79.41
12452;BME280;72521;48.924;12.204;2023-11-18T09:42:04;98385.75;;;4.96;80.28
12452;BME280;72521;48.924;12.204;2023-11-18T09:47:12;98389.00;;;5.39;79.13
12452;BME280;72521;48.924;12.204;2023-11-18T09:52:21;98387.63;;;5.67;77.89
12452;BME280;72521;48.924;12.204;2023-11-18T09:57:32;98390.69;;;5.64;77.95
12452;BME280;72521;48.924;12.204;2023-11-18T10:02:40;98374.66;;;5.53;77.83
12452;BME280;72521;48.924;12.204;2023-11-18T10:07:48;98362.81;;;5.63;78.72
12452;BME280;72521;48.924;12.204;2023-11-18T10:12:52;98366.78;;;5.95;77.75
12452;BME280;72521;48.924;12.204;2023-11-18T10:18:02;98365.75;;;6.08;75.95
12452;BME280;72521;48.924;12.204;2023-11-18T10:23:13;98341.06;;;5.85;76.71
12452;BME280;72521;48.924;12.204;2023-11-18T10:28:24;98350.22;;;6.06;77.19
12452;BME280;72521;48.924;12.204;2023-11-18T10:33:31;98347.50;;;6.13;77.46
12452;BME280;72521;48.924;12.204;2023-11-18T10:38:39;98353.06;;;6.16;76.41
12452;BME280;72521;48.924;12.204;2023-11-18T10:43:46;98348.03;;;6.26;77.23
12452;BME280;72521;48.924;12.204;2023-11-18T10:48:51;98334.19;;;6.94;74.37
12452;BME280;72521;48.924;12.204;2023-11-18T10:53:58;98339.28;;;7.74;72.43
12452;BME280;72521;48.924;12.204;2023-11-18T10:59:05;98335.50;;;7.37;72.95
12452;BME280;72521;48.924;12.204;2023-11-18T11:04:11;98333.69;;;7.54;72.28
12452;BME280;72521;48.924;12.204;2023-11-18T11:09:16;98337.16;;;7.26;73.92
12452;BME280;72521;48.924;12.204;2023-11-18T11:14:22;98330.44;;;8.19;69.79
12452;BME280;72521;48.924;12.204;2023-11-18T11:19:38;98339.59;;;7.95;70.09
12452;BME280;72521;48.924;12.204;2023-11-18T11:25:04;98342.56;;;10.62;63.57
12452;BME280;72521;48.924;12.204;2023-11-18T11:30:21;98337.34;;;7.53;73.17
12452;BME280;72521;48.924;12.204;2023-11-18T11:35:32;98339.53;;;8.28;70.32
12452;BME280;72521;48.924;12.204;2023-11-18T11:40:42;98335.59;;;8.64;69.23
12452;BME280;72521;48.924;12.204;2023-11-18T11:45:46;98334.22;;;8.23;71.19
12452;BME280;72521;48.924;12.204;2023-11-18T11:51:05;98335.94;;;7.96;72.12
12452;BME280;72521;48.924;12.204;2023-11-18T11:56:18;98331.19;;;7.98;70.23
12452;BME280;72521;48.924;12.204;2023-11-18T12:01:26;98320.84;;;7.58;71.24
12452;BME280;72521;48.924;12.204;2023-11-18T12:06:41;98327.63;;;6.80;73.53
12452;BME280;72521;48.924;12.204;2023-11-18T12:11:48;98314.91;;;7.51;73.04
12452;BME280;72521;48.924;12.204;2023-11-18T12:17:03;98302.63;;;6.94;74.71
12452;BME280;72521;48.924;12.204;2023-11-18T12:22:14;98296.66;;;7.61;73.24
12452;BME280;72521;48.924;12.204;2023-11-18T12:27:43;98289.28;;;7.96;70.74
12452;BME280;72521;48.924;12.204;2023-11-18T12:33:01;98272.19;;;7.99;71.36
12452;BME280;72521;48.924;12.204;2023-11-18T12:38:38;98254.00;;;7.80;71.68
12452;BME280;72521;48.924;12.204;2023-11-18T12:44:10;98240.84;;;7.80;71.23
12452;BME280;72521;48.924;12.204;2023-11-18T12:49:21;98230.09;;;6.98;74.33
12452;BME280;72521;48.924;12.204;2023-11-18T12:54:27;98224.84;;;7.32;73.35
12452;BME280;72521;48.924;12.204;2023-11-18T12:59:33;98212.06;;;7.24;74.00
12452;BME280;72521;48.924;12.204;2023-11-18T13:04:37;98220.13;;;7.17;74.39
12452;BME280;72521;48.924;12.204;2023-11-18T13:09:43;98222.47;;;7.30;74.16
12452;BME280;72521;48.924;12.204;2023-11-18T13:14:50;98208.09;;;7.38;73.81
12452;BME280;72521;48.924;12.204;2023-11-18T13:19:54;98222.22;;;7.49;74.25
12452;BME280;72521;48.924;12.204;2023-11-18T13:25:01;98227.00;;;7.35;75.15
12452;BME280;72521;48.924;12.204;2023-11-18T13:30:10;98220.06;;;7.29;75.72
12452;BME280;72521;48.924;12.204;2023-11-18T13:35:16;98212.56;;;7.37;75.15
12452;BME280;72521;48.924;12.204;2023-11-18T13:40:22;98206.84;;;6.79;76.25
12452;BME280;72521;48.924;12.204;2023-11-18T13:45:28;98197.94;;;6.80;76.34
12452;BME280;72521;48.924;12.204;2023-11-18T13:50:41;98200.69;;;6.73;77.11
12452;BME280;72521;48.924;12.204;2023-11-18T13:55:46;98197.41;;;6.66;77.47
12452;BME280;72521;48.924;12.204;2023-11-18T14:00:52;98216.19;;;6.86;77.88
12452;BME280;72521;48.924;12.204;2023-11-18T14:05:59;98220.09;;;6.84;77.12
12452;BME280;72521;48.924;12.204;2023-11-18T14:11:05;98209.38;;;7.19;76.42
12452;BME280;72521;48.924;12.204;2023-11-18T14:16:20;98199.78;;;7.13;75.82
12452;BME280;72521;48.924;12.204;2023-11-18T14:21:26;98194.53;;;6.96;76.77
12452;BME280;72521;48.924;12.204;2023-11-18T14:26:30;98186.50;;;6.74;76.92
12452;BME280;72521;48.924;12.204;2023-11-18T14:31:37;98171.44;;;6.53;78.13
12452;BME280;72521;48.924;12.204;2023-11-18T14:36:41;98161.44;;;6.38;78.77
12452;BME280;72521;48.924;12.204;2023-11-18T14:41:45;98170.03;;;6.33;79.35
12452;BME280;72521;48.924;12.204;2023-11-18T14:46:51;98177.84;;;6.17;79.88
12452;BME280;72521;48.924;12.204;2023-11-18T14:51:57;98186.03;;;5.92;80.48
12452;BME280;72521;48.924;12.204;2023-11-18T14:57:02;98182.56;;;5.80;81.27
12452;BME280;72521;48.924;12.204;2023-11-18T15:02:10;98182.25;;;5.65;81.55
12452;BME280;72521;48.924;12.204;2023-11-18T15:07:15;98159.44;;;5.53;82.44
12452;BME280;72521;48.924;12.204;2023-11-18T15:12:19;98146.53;;;5.40;83.37
12452;BME280;72521;48.924;12.204;2023-11-18T15:17:24;98130.81;;;5.29;83.98
12452;BME280;72521;48.924;12.204;2023-11-18T15:22:43;98135.38;;;5.21;84.56
12452;BME280;72521;48.924;12.204;2023-11-18T15:27:47;98137.09;;;5.16;84.24
12452;BME280;72521;48.924;12.204;2023-11-18T15:32:54;98124.41;;;5.01;85.01
12452;BME280;72521;48.924;12.204;2023-11-18T15:37:59;98109.25;;;4.92;85.21
12452;BME280;72521;48.924;12.204;2023-11-18T15:43:04;98095.91;;;4.81;85.56
12452;BME280;72521;48.924;12.204;2023-11-18T15:48:11;98089.75;;;4.76;86.28
12452;BME280;72521;48.924;12.204;2023-11-18T15:53:17;98081.06;;;4.64;86.21
12452;BME280;72521;48.924;12.204;2023-11-18T15:58:22;98077.53;;;4.58;86.77
12452;BME280;72521;48.924;12.204;2023-11-18T16:03:32;98083.66;;;4.52;86.71
12452;BME280;72521;48.924;12.204;2023-11-18T16:08:37;98078.88;;;4.49;87.10
12452;BME280;72521;48.924;12.204;2023-11-18T16:13:41;98064.78;;;4.50;87.12
12452;BME280;72521;48.924;12.204;2023-11-18T16:18:46;98079.00;;;4.54;86.79
12452;BME280;72521;48.924;12.204;2023-11-18T16:23:51;98077.53;;;4.58;87.08
12452;BME280;72521;48.924;12.204;2023-11-18T16:28:56;98070.69;;;4.57;86.78
12452;BME280;72521;48.924;12.204;2023-11-18T16:34:02;98075.38;;;4.67;86.11
12452;BME280;72521;48.924;12.204;2023-11-18T16:39:07;98085.19;;;4.60;86.51
12452;BME280;72521;48.924;12.204;2023-11-18T16:44:11;98077.44;;;4.65;86.46
12452;BME280;72521;48.924;12.204;2023-11-18T16:49:17;98074.34;;;4.56;86.20
12452;BME280;72521;48.924;12.204;2023-11-18T16:54:22;98085.41;;;4.58;86.61
12452;BME280;72521;48.924;12.204;2023-11-18T16:59:40;98095.88;;;4.58;87.04
12452;BME280;72521;48.924;12.204;2023-11-18T17:04:47;98090.06;;;4.56;87.11
12452;BME280;72521;48.924;12.204;2023-11-18T17:09:51;98094.72;;;4.54;87.37
12452;BME280;72521;48.924;12.204;2023-11-18T17:14:55;98091.53;;;4.64;87.13
12452;BME280;72521;48.924;12.204;2023-11-18T17:20:01;98107.03;;;4.54;87.04
12452;BME280;72521;48.924;12.204;2023-11-18T17:25:15;98117.66;;;4.59;87.68
12452;BME280;72521;48.924;12.204;2023-11-18T17:30:35;98117.28;;;4.55;87.49
12452;BME280;72521;48.924;12.204;2023-11-18T17:35:43;98112.72;;;4.51;87.17
12452;BME280;72521;48.924;12.204;2023-11-18T17:40:47;98099.75;;;4.56;87.21
12452;BME280;72521;48.924;12.204;2023-11-18T17:45:51;98082.28;;;4.38;87.67
12452;BME280;72521;48.924;12.204;2023-11-18T17:50:58;98067.31;;;4.27;87.77
12452;BME280;72521;48.924;12.204;2023-11-18T17:56:02;98052.19;;;4.29;88.26
12452;BME280;72521;48.924;12.204;2023-11-18T18:01:08;98052.09;;;4.35;87.62
12452;BME280;72521;48.924;12.204;2023-11-18T18:06:14;98062.91;;;4.39;88.03
12452;BME280;72521;48.924;12.204;2023-11-18T18:11:19;98058.16;;;4.47;87.66
12452;BME280;72521;48.924;12.204;2023-11-18T18:16:23;98054.41;;;4.55;87.40
12452;BME280;72521;48.924;12.204;2023-11-18T18:21:28;98045.41;;;4.51;87.19
12452;BME280;72521;48.924;12.204;2023-11-18T18:26:32;98055.06;;;4.62;86.95
12452;BME280;72521;48.924;12.204;2023-11-18T18:31:38;98044.50;;;4.69;86.88
12452;BME280;72521;48.924;12.204;2023-11-18T18:36:44;98035.94;;;4.62;86.50
12452;BME280;72521;48.924;12.204;2023-11-18T18:41:48;98035.16;;;4.61;87.38
12452;BME280;72521;48.924;12.204;2023-11-18T18:46:52;98032.66;;;4.66;88.10
12452;BME280;72521;48.924;12.204;2023-11-18T18:51:58;98034.59;;;4.59;88.39
12452;BME280;72521;48.924;12.204;2023-11-18T18:57:02;98019.09;;;4.58;88.14
12452;BME280;72521;48.924;12.204;2023-11-18T19:02:09;98020.22;;;4.62;88.59
12452;BME280;72521;48.924;12.204;2023-11-18T19:07:16;98018.38;;;4.62;88.54
12452;BME280;72521;48.924;12.204;2023-11-18T19:12:21;98011.81;;;4.60;88.39
12452;BME280;72521;48.924;12.204;2023-11-18T19:17:25;98010.53;;;4.62;89.03
12452;BME280;72521;48.924;12.204;2023-11-18T19:22:30;97992.66;;;4.59;88.65
12452;BME280;72521;48.924;12.204;2023-11-18T19:27:35;97980.69;;;4.75;88.85
12452;BME280;72521;48.924;12.204;2023-11-18T19:32:46;97954.81;;;4.78;88.73
12452;BME280;72521;48.924;12.204;2023-11-18T19:37:51;97936.69;;;4.77;89.21
12452;BME280;72521;48.924;12.204;2023-11-18T19:42:55;97924.63;;;4.76;89.10
12452;BME280;72521;48.924;12.204;2023-11-18T19:48:02;97912.97;;;4.83;89.06
12452;BME280;72521;48.924;12.204;2023-11-18T19:53:07;97898.63;;;4.74;89.36
12452;BME280;72521;48.924;12.204;2023-11-18T19:58:12;97894.19;;;4.75;89.67
12452;BME280;72521;48.924;12.204;2023-11-18T20:03:16;97893.59;;;4.84;89.22
12452;BME280;72521;48.924;12.204;2023-11-18T20:08:22;97909.44;;;4.90;89.15
12452;BME280;72521;48.924;12.204;2023-11-18T20:13:27;97912.50;;;4.87;89.23
12452;BME280;72521;48.924;12.204;2023-11-18T20:18:31;97908.59;;;5.01;88.66
12452;BME280;72521;48.924;12.204;2023-11-18T20:23:38;97903.94;;;4.91;88.90
12452;BME280;72521;48.924;12.204;2023-11-18T20:28:42;97903.09;;;5.02;89.07
12452;BME280;72521;48.924;12.204;2023-11-18T20:33:48;97900.19;;;4.99;89.47
12452;BME280;72521;48.924;12.204;2023-11-18T20:38:53;97882.84;;;4.98;89.45
12452;BME280;72521;48.924;12.204;2023-11-18T20:43:57;97884.09;;;4.95;89.87
12452;BME280;72521;48.924;12.204;2023-11-18T20:49:03;97870.34;;;4.88;90.08
12452;BME280;72521;48.924;12.204;2023-11-18T20:54:10;97855.94;;;4.91;90.47
12452;BME280;72521;48.924;12.204;2023-11-18T20:59:15;97838.31;;;4.86;90.52
12452;BME280;72521;48.924;12.204;2023-11-18T21:04:21;97824.31;;;4.80;90.87
12452;BME280;72521;48.924;12.204;2023-11-18T21:09:26;97811.09;;;4.75;93.40
12452;BME280;72521;48.924;12.204;2023-11-18T21:14:30;97784.66;;;4.77;91.47
12452;BME280;72521;48.924;12.204;2023-11-18T21:19:36;97757.53;;;4.71;91.70
12452;BME280;72521;48.924;12.204;2023-11-18T21:24:45;97750.56;;;4.60;92.19
12452;BME280;72521;48.924;12.204;2023-11-18T21:29:49;97746.41;;;4.64;92.57
12452;BME280;72521;48.924;12.204;2023-11-18T21:34:54;97739.19;;;4.71;92.47
12452;BME280;72521;48.924;12.204;2023-11-18T21:40:00;97739.69;;;4.68;92.36
12452;BME280;72521;48.924;12.204;2023-11-18T21:45:08;97737.91;;;4.57;92.49
12452;BME280;72521;48.924;12.204;2023-11-18T21:50:13;97747.31;;;4.70;92.69
12452;BME280;72521;48.924;12.204;2023-11-18T21:55:19;97748.31;;;4.80;92.17
12452;BME280;72521;48.924;12.204;2023-11-18T22:00:24;97738.09;;;4.67;92.70
12452;BME280;72521;48.924;12.204;2023-11-18T22:05:29;97744.94;;;4.68;92.47
12452;BME280;72521;48.924;12.204;2023-11-18T22:10:34;97726.78;;;4.50;92.80
12452;BME280;72521;48.924;12.204;2023-11-18T22:15:38;97746.72;;;4.51;93.09
12452;BME280;72521;48.924;12.204;2023-11-18T22:20:43;97725.75;;;4.51;92.74
12452;BME280;72521;48.924;12.204;2023-11-18T22:25:49;97714.13;;;4.47;92.18
12452;BME280;72521;48.924;12.204;2023-11-18T22:30:53;97686.94;;;4.36;92.35
12452;BME280;72521;48.924;12.204;2023-11-18T22:35:58;97665.16;;;4.47;92.57
12452;BME280;72521;48.924;12.204;2023-11-18T22:41:05;97668.38;;;4.38;91.90
12452;BME280;72521;48.924;12.204;2023-11-18T22:46:12;97655.53;;;4.36;92.73
12452;BME280;72521;48.924;12.204;2023-11-18T22:51:16;97667.94;;;4.41;92.49
12452;BME280;72521;48.924;12.204;2023-11-18T22:56:21;97636.78;;;4.44;92.05
12452;BME280;72521;48.924;12.204;2023-11-18T23:01:28;97612.34;;;4.39;92.50
12452;BME280;72521;48.924;12.204;2023-11-18T23:06:32;97629.47;;;4.30;91.94
12452;BME280;72521;48.924;12.204;2023-11-18T23:11:37;97618.69;;;4.43;91.71
12452;BME280;72521;48.924;12.204;2023-11-18T23:16:42;97629.88;;;4.38;92.21
12452;BME280;72521;48.924;12.204;2023-11-18T23:21:47;97611.22;;;4.35;92.60
12452;BME280;72521;48.924;12.204;2023-11-18T23:26:52;97620.25;;;4.27;92.87
12452;BME280;72521;48.924;12.204;2023-11-18T23:31:58;97608.34;;;4.20;92.82
12452;BME280;72521;48.924;12.204;2023-11-18T23:37:03;97612.06;;;4.24;93.44
12452;BME280;72521;48.924;12.204;2023-11-18T23:42:09;97618.81;;;4.20;93.08
12452;BME280;72521;48.924;12.204;2023-11-18T23:47:14;97613.44;;;4.26;93.65
12452;BME280;72521;48.924;12.204;2023-11-18T23:52:18;97605.50;;;4.21;93.34
12452;BME280;72521;48.924;12.204;2023-11-18T23:57:24;97598.50;;;4.27;93.45
